Terminal Aerodrome Forecast
Issued by NWS

Home | Current Version | Previous Version | Text Only | Print | Product List | Glossary On
Versions: 1 2 3 4 5 6 7 8 9 10 11 12 13 14
000
FTUS45 KTFX 221700
TAFCTB
TAF
KCTB 221730Z 2218/2318 VRB05KT P6SM BKN150
     FM222000 19010KT P6SM SCT070 BKN150
      TEMPO 2222/2302 VRB25G35KT -TSRA BKN070CB
     FM230200 21007KT P6SM SCT120
     FM230600 VRB05KT P6SM BKN250
     FM231600 16006KT P6SM SCT120=

USA.gov is the U.S. government's official web portal to all federal, state and local government web resources and services.